createdAt,value
2023-05-04T00:02:18.749Z,102130.00
2023-05-04T00:04:45.735Z,102126.00
2023-05-04T00:07:12.772Z,102130.00
2023-05-04T00:09:39.424Z,102132.00
2023-05-04T00:12:07.070Z,102113.00
2023-05-04T00:14:33.757Z,102115.00
2023-05-04T00:17:00.475Z,102114.00
2023-05-04T00:19:27.294Z,102105.00
2023-05-04T00:21:53.952Z,102102.00
2023-05-04T00:24:20.687Z,102099.00
2023-05-04T00:26:47.476Z,102098.00
2023-05-04T00:29:14.190Z,102094.00
2023-05-04T00:31:41.050Z,102091.00
2023-05-04T00:34:07.850Z,102092.00
2023-05-04T00:36:35.134Z,102085.00
2023-05-04T00:39:01.933Z,102095.00
2023-05-04T00:41:28.576Z,102087.00
2023-05-04T00:43:55.322Z,102091.00
2023-05-04T00:46:22.812Z,102084.00
2023-05-04T00:48:50.186Z,102092.00
2023-05-04T00:51:19.353Z,102086.00
2023-05-04T00:53:46.478Z,102078.00
2023-05-04T00:56:14.378Z,102083.00
2023-05-04T00:58:41.481Z,102080.00
2023-05-04T01:01:08.486Z,102083.00
2023-05-04T01:03:35.573Z,102077.00
2023-05-04T01:06:45.448Z,102076.00
2023-05-04T01:09:21.048Z,102072.00
2023-05-04T01:11:57.173Z,102062.00
2023-05-04T01:14:25.435Z,102054.00
2023-05-04T01:16:58.171Z,102042.00
2023-05-04T01:19:27.567Z,102047.00
2023-05-04T01:21:54.283Z,102048.00
2023-05-04T01:24:21.248Z,102036.00
2023-05-04T01:26:52.979Z,102048.00
2023-05-04T01:29:27.780Z,102045.00
2023-05-04T01:31:56.046Z,102045.00
2023-05-04T01:34:23.308Z,102050.00
2023-05-04T01:36:50.755Z,102049.00
2023-05-04T01:39:17.404Z,102053.00
2023-05-04T01:41:44.096Z,102051.00
2023-05-04T01:44:11.252Z,102056.00
2023-05-04T01:46:38.470Z,102062.00
2023-05-04T01:49:05.250Z,102060.00
2023-05-04T01:51:31.983Z,102057.00
2023-05-04T01:53:58.671Z,102054.00
2023-05-04T01:56:25.415Z,102049.00
2023-05-04T01:58:52.210Z,102054.00
2023-05-04T02:01:18.914Z,102054.00
2023-05-04T02:03:45.767Z,102056.00
2023-05-04T02:06:12.500Z,102046.00
2023-05-04T02:08:39.668Z,102040.00
2023-05-04T02:11:06.427Z,102040.00
2023-05-04T02:13:33.223Z,102035.00
2023-05-04T02:15:59.961Z,102037.00
2023-05-04T02:18:26.789Z,102029.00
2023-05-04T02:20:53.587Z,102032.00
2023-05-04T02:23:20.312Z,102038.00
2023-05-04T02:25:47.013Z,102037.00
2023-05-04T02:28:13.608Z,102033.00
2023-05-04T02:30:41.691Z,102028.00
2023-05-04T02:33:08.814Z,102023.00
2023-05-04T02:35:35.672Z,102021.00
2023-05-04T02:38:02.408Z,102014.00
2023-05-04T02:40:29.048Z,102006.00
2023-05-04T02:42:56.169Z,102000.00
2023-05-04T02:45:22.813Z,101996.00
2023-05-04T02:47:49.590Z,102004.00
2023-05-04T02:50:16.270Z,102000.00
2023-05-04T02:52:43.131Z,102007.00
2023-05-04T02:55:10.170Z,102004.00
2023-05-04T02:57:36.901Z,102005.00
2023-05-04T03:00:05.882Z,102010.00
2023-05-04T03:02:33.055Z,102009.00
2023-05-04T03:04:59.844Z,102003.00
2023-05-04T03:07:26.880Z,101997.00
2023-05-04T03:09:53.637Z,101994.00
2023-05-04T03:12:20.492Z,101998.00
2023-05-04T03:14:47.177Z,101988.00
2023-05-04T03:17:13.953Z,101992.00
2023-05-04T03:19:40.576Z,101975.00
2023-05-04T03:22:07.432Z,101977.00
2023-05-04T03:24:34.125Z,101968.00
2023-05-04T03:27:00.825Z,101964.00
2023-05-04T03:29:27.587Z,101970.00
2023-05-04T03:31:54.443Z,101972.00
2023-05-04T03:34:21.771Z,101971.00
2023-05-04T03:36:49.109Z,101969.00
2023-05-04T03:39:17.856Z,101971.00
2023-05-04T03:41:44.749Z,101971.00
2023-05-04T03:44:11.382Z,101969.00
2023-05-04T03:46:38.259Z,101968.00
2023-05-04T03:49:05.076Z,101962.00
2023-05-04T03:51:31.743Z,101958.00
2023-05-04T03:53:58.388Z,101960.00
2023-05-04T03:56:25.038Z,101953.00
2023-05-04T03:58:51.636Z,101951.00
2023-05-04T04:01:18.497Z,101950.00
2023-05-04T04:03:45.399Z,101954.00
2023-05-04T04:06:13.439Z,101949.00
2023-05-04T04:08:40.255Z,101942.00
2023-05-04T04:11:06.967Z,101947.00
2023-05-04T04:13:33.700Z,101945.00
2023-05-04T04:16:00.539Z,101949.00
2023-05-04T04:18:27.452Z,101950.00
2023-05-04T04:20:54.184Z,101948.00
2023-05-04T04:23:21.919Z,101941.00
2023-05-04T04:25:48.885Z,101950.00
2023-05-04T04:28:16.249Z,101946.00
2023-05-04T04:30:43.084Z,101943.00
2023-05-04T04:33:10.321Z,101938.00
2023-05-04T04:35:37.435Z,101947.00
2023-05-04T04:38:04.372Z,101946.00
2023-05-04T04:40:31.277Z,101928.00
2023-05-04T04:42:57.997Z,101932.00
2023-05-04T04:45:24.894Z,101937.00
2023-05-04T04:47:51.776Z,101934.00
2023-05-04T04:50:19.405Z,101926.00
2023-05-04T04:52:46.541Z,101926.00
2023-05-04T04:55:15.451Z,101923.00
2023-05-04T04:57:42.205Z,101919.00
2023-05-04T05:00:14.406Z,101916.00
2023-05-04T05:02:41.376Z,101915.00
2023-05-04T05:05:08.698Z,101918.00
2023-05-04T05:07:36.500Z,101919.00
2023-05-04T05:10:03.654Z,101912.00
2023-05-04T05:12:31.138Z,101920.00
2023-05-04T05:14:57.941Z,101920.00
2023-05-04T05:17:24.824Z,101919.00
2023-05-04T05:19:51.633Z,101925.00
2023-05-04T05:22:18.409Z,101923.00
2023-05-04T05:24:45.051Z,101920.00
2023-05-04T05:27:11.844Z,101921.00
2023-05-04T05:29:38.740Z,101922.00
2023-05-04T05:32:05.852Z,101915.00
2023-05-04T05:34:33.009Z,101914.00
2023-05-04T05:36:59.810Z,101918.00
2023-05-04T05:39:26.491Z,101912.00
2023-05-04T05:41:57.376Z,101907.00
2023-05-04T05:44:24.588Z,101906.00
2023-05-04T05:46:51.408Z,101905.00
2023-05-04T05:49:18.248Z,101907.00
2023-05-04T05:51:44.884Z,101911.00
2023-05-04T05:54:11.555Z,101911.00
2023-05-04T05:56:38.167Z,101907.00
2023-05-04T05:59:04.840Z,101907.00
2023-05-04T06:01:32.044Z,101905.00
2023-05-04T06:03:59.023Z,101910.00
2023-05-04T06:06:25.788Z,101908.00
2023-05-04T06:08:52.465Z,101902.00
2023-05-04T06:11:19.209Z,101904.00
2023-05-04T06:13:46.319Z,101902.00
2023-05-04T06:16:13.072Z,101892.00
2023-05-04T06:18:39.799Z,101890.00
2023-05-04T06:21:06.440Z,101886.00
2023-05-04T06:23:34.456Z,101889.00
2023-05-04T06:26:01.161Z,101878.00
2023-05-04T06:28:27.874Z,101874.00
2023-05-04T06:30:54.581Z,101872.00
2023-05-04T06:33:21.266Z,101862.00
2023-05-04T06:35:48.135Z,101853.00
2023-05-04T06:38:14.845Z,101869.00
2023-05-04T06:40:41.766Z,101863.00
2023-05-04T06:43:08.425Z,101870.00
2023-05-04T06:45:35.951Z,101879.00
2023-05-04T06:48:03.672Z,101874.00
2023-05-04T06:50:30.917Z,101875.00
2023-05-04T06:53:05.223Z,101860.00
2023-05-04T06:55:31.973Z,101864.00
2023-05-04T06:57:58.829Z,101869.00
2023-05-04T07:00:26.178Z,101860.00
2023-05-04T07:02:54.063Z,101847.00
2023-05-04T07:05:22.313Z,101846.00
2023-05-04T07:07:51.283Z,101849.00
2023-05-04T07:10:19.634Z,101844.00
2023-05-04T07:12:47.049Z,101850.00
2023-05-04T07:15:14.111Z,101849.00
2023-05-04T07:17:41.161Z,101847.00
2023-05-04T07:20:08.593Z,101840.00
2023-05-04T07:22:37.950Z,101842.00
2023-05-04T07:25:05.008Z,101828.00
2023-05-04T07:27:31.835Z,101829.00
2023-05-04T07:29:58.518Z,101831.00
2023-05-04T07:32:25.334Z,101830.00
2023-05-04T07:34:52.135Z,101823.00
2023-05-04T07:37:19.177Z,101822.00
2023-05-04T07:39:46.070Z,101817.00
2023-05-04T07:42:12.939Z,101820.00
2023-05-04T07:44:41.378Z,101810.00
2023-05-04T07:47:08.891Z,101812.00
2023-05-04T07:49:35.715Z,101807.00
2023-05-04T07:52:04.284Z,101806.00
2023-05-04T07:54:31.410Z,101812.00
2023-05-04T07:56:58.094Z,101812.00
2023-05-04T07:59:24.750Z,101808.00
2023-05-04T08:01:51.482Z,101807.00
2023-05-04T08:04:18.163Z,101801.00
2023-05-04T08:06:45.529Z,101792.00
2023-05-04T08:09:12.654Z,101799.00
2023-05-04T08:11:42.703Z,101789.00
2023-05-04T08:14:09.633Z,101789.00
2023-05-04T08:16:36.478Z,101781.00
2023-05-04T08:19:03.399Z,101772.00
2023-05-04T08:21:30.473Z,101765.00
2023-05-04T08:23:57.425Z,101756.00
2023-05-04T08:26:24.606Z,101745.00
2023-05-04T08:28:51.481Z,101751.00
2023-05-04T08:31:18.739Z,101742.00
2023-05-04T08:33:48.541Z,101740.00
2023-05-04T08:36:15.608Z,101740.00
2023-05-04T08:38:42.384Z,101743.00
2023-05-04T08:41:11.120Z,101737.00
2023-05-04T08:43:37.963Z,101731.00
2023-05-04T08:46:06.763Z,101731.00
2023-05-04T08:48:34.963Z,101724.00
2023-05-04T08:51:03.605Z,101720.00
2023-05-04T08:53:31.672Z,101724.00
2023-05-04T08:56:04.047Z,101722.00
2023-05-04T08:58:31.976Z,101727.00
2023-05-04T09:01:01.373Z,101722.00
2023-05-04T09:03:29.674Z,101718.00
2023-05-04T09:05:57.296Z,101713.00
2023-05-04T09:08:24.135Z,101707.00
2023-05-04T09:10:50.899Z,101712.00
2023-05-04T09:13:18.072Z,101710.00
2023-05-04T09:15:54.718Z,101710.00
2023-05-04T09:18:21.555Z,101704.00
2023-05-04T09:20:48.216Z,101698.00
2023-05-04T09:23:17.999Z,101703.00
2023-05-04T09:25:48.771Z,101700.00
2023-05-04T09:28:16.499Z,101694.00
2023-05-04T09:30:43.829Z,101702.00
2023-05-04T09:33:13.555Z,101705.00
2023-05-04T09:35:42.107Z,101704.00
2023-05-04T09:38:09.512Z,101710.00
2023-05-04T09:40:39.106Z,101701.00
2023-05-04T09:43:06.813Z,101691.00
2023-05-04T09:45:46.430Z,101693.00
2023-05-04T09:48:17.454Z,101698.00
2023-05-04T09:50:54.681Z,101696.00
2023-05-04T09:53:24.920Z,101690.00
2023-05-04T09:56:29.966Z,101708.00
2023-05-04T09:59:00.010Z,101693.00
2023-05-04T10:01:30.038Z,101681.00
2023-05-04T10:03:57.096Z,101684.00
2023-05-04T10:06:24.712Z,101675.00
2023-05-04T10:08:52.165Z,101660.00
2023-05-04T10:11:20.817Z,101653.00
2023-05-04T10:13:49.280Z,101656.00
2023-05-04T10:16:38.636Z,101644.00
2023-05-04T10:19:22.195Z,101642.00
2023-05-04T10:21:57.383Z,101643.00
2023-05-04T10:25:02.951Z,101638.00
2023-05-04T10:28:01.608Z,101637.00
2023-05-04T10:30:28.526Z,101631.00
2023-05-04T10:32:57.405Z,101638.00
2023-05-04T10:35:24.973Z,101633.00
2023-05-04T10:37:56.208Z,101621.00
2023-05-04T10:40:39.457Z,101617.00
2023-05-04T10:43:11.676Z,101606.00
2023-05-04T10:45:42.022Z,101597.00
2023-05-04T10:48:09.430Z,101585.00
2023-05-04T10:50:46.366Z,101602.00
2023-05-04T10:53:14.717Z,101592.00
2023-05-04T10:55:48.838Z,101583.00
2023-05-04T10:58:19.221Z,101589.00
2023-05-04T11:00:47.205Z,101575.00
2023-05-04T11:03:14.435Z,101567.00
2023-05-04T11:05:47.070Z,101568.00
2023-05-04T11:08:24.842Z,101553.00
2023-05-04T11:11:02.903Z,101552.00
2023-05-04T11:13:31.930Z,101542.00
2023-05-04T11:15:58.723Z,101542.00
2023-05-04T11:18:35.547Z,101533.00
2023-05-04T11:21:02.653Z,101520.00
2023-05-04T11:23:29.887Z,101518.00
2023-05-04T11:25:56.719Z,101511.00
2023-05-04T11:28:36.652Z,101495.00
2023-05-04T11:31:17.148Z,101487.00
2023-05-04T11:33:52.505Z,101475.00
2023-05-04T11:36:20.454Z,101471.00
2023-05-04T11:38:47.623Z,101476.00
2023-05-04T11:41:14.531Z,101475.00
2023-05-04T11:43:44.323Z,101481.00
2023-05-04T11:46:11.514Z,101480.00
2023-05-04T11:48:39.592Z,101485.00
2023-05-04T11:51:06.762Z,101494.00
2023-05-04T11:53:37.645Z,101505.00
2023-05-04T11:56:04.841Z,101498.00
2023-05-04T11:58:31.902Z,101488.00
2023-05-04T12:00:59.033Z,101479.00
2023-05-04T12:03:43.904Z,101480.00
2023-05-04T12:06:18.664Z,101486.00
2023-05-04T12:08:45.510Z,101472.00
2023-05-04T12:11:25.656Z,101470.00
2023-05-04T12:14:07.093Z,101473.00
2023-05-04T12:16:34.452Z,101465.00
2023-05-04T12:19:11.306Z,101474.00
2023-05-04T12:21:49.826Z,101471.00
2023-05-04T12:24:16.444Z,101475.00
2023-05-04T12:26:43.317Z,101472.00
2023-05-04T12:29:09.990Z,101461.00
2023-05-04T12:31:36.638Z,101453.00
2023-05-04T12:34:03.303Z,101439.00
2023-05-04T12:36:29.917Z,101439.00
2023-05-04T12:38:56.690Z,101438.00
2023-05-04T12:41:23.447Z,101442.00
2023-05-04T12:43:50.273Z,101441.00
2023-05-04T12:46:21.549Z,101427.00
2023-05-04T12:48:48.628Z,101434.00
2023-05-04T12:51:15.283Z,101413.00
2023-05-04T12:53:42.452Z,101419.00
2023-05-04T12:56:09.245Z,101424.00
2023-05-04T12:58:35.823Z,101420.00
2023-05-04T13:01:03.545Z,101413.00
2023-05-04T13:03:30.439Z,101404.00
2023-05-04T13:05:57.754Z,101409.00
2023-05-04T13:08:25.010Z,101411.00
2023-05-04T13:10:52.231Z,101421.00
2023-05-04T13:13:19.375Z,101425.00
2023-05-04T13:15:50.591Z,101429.00
2023-05-04T13:18:17.657Z,101414.00
2023-05-04T13:20:44.362Z,101425.00
2023-05-04T13:23:11.180Z,101432.00
2023-05-04T13:25:37.831Z,101418.00
2023-05-04T13:28:04.574Z,101422.00
2023-05-04T13:30:31.325Z,101406.00
2023-05-04T13:32:58.140Z,101407.00
2023-05-04T13:35:27.900Z,101397.00
2023-05-04T13:37:54.537Z,101392.00
2023-05-04T13:40:21.377Z,101387.00
2023-05-04T13:42:48.217Z,101382.00
2023-05-04T13:45:15.094Z,101387.00
2023-05-04T13:47:41.956Z,101387.00
2023-05-04T13:50:09.057Z,101393.00
2023-05-04T13:52:36.998Z,101391.00
2023-05-04T13:55:04.686Z,101385.00
2023-05-04T13:57:31.701Z,101389.00
2023-05-04T14:00:06.942Z,101374.00
2023-05-04T14:02:35.341Z,101365.00
2023-05-04T14:05:04.165Z,101366.00
2023-05-04T14:07:31.375Z,101365.00
2023-05-04T14:09:59.130Z,101363.00
2023-05-04T14:12:25.919Z,101363.00
2023-05-04T14:14:52.790Z,101361.00
2023-05-04T14:17:19.521Z,101357.00
2023-05-04T14:19:46.291Z,101350.00
2023-05-04T14:22:12.936Z,101352.00
2023-05-04T14:24:39.641Z,101351.00
2023-05-04T14:27:06.417Z,101352.00
2023-05-04T14:29:34.384Z,101355.00
2023-05-04T14:32:01.158Z,101352.00
2023-05-04T14:34:31.098Z,101358.00
2023-05-04T14:36:58.024Z,101356.00
2023-05-04T14:39:24.972Z,101351.00
2023-05-04T14:41:53.155Z,101350.00
2023-05-04T14:44:22.609Z,101343.00
2023-05-04T14:46:49.337Z,101344.00
2023-05-04T14:49:24.899Z,101345.00
2023-05-04T14:52:02.149Z,101344.00
2023-05-04T14:54:28.883Z,101342.00
2023-05-04T14:56:55.617Z,101337.00
2023-05-04T14:59:22.256Z,101336.00
2023-05-04T15:01:49.074Z,101327.00
2023-05-04T15:04:17.222Z,101327.00
2023-05-04T15:06:45.699Z,101317.00
2023-05-04T15:09:13.114Z,101321.00
2023-05-04T15:11:39.815Z,101315.00
2023-05-04T15:14:06.595Z,101314.00
2023-05-04T15:16:33.530Z,101315.00
2023-05-04T15:19:00.780Z,101307.00
2023-05-04T15:21:28.436Z,101323.00
2023-05-04T15:24:00.214Z,101316.00
2023-05-04T15:26:34.556Z,101313.00
2023-05-04T15:29:02.156Z,101312.00
2023-05-04T15:31:29.000Z,101313.00
2023-05-04T15:33:55.975Z,101314.00
2023-05-04T15:36:24.461Z,101307.00
2023-05-04T15:38:51.244Z,101306.00
2023-05-04T15:41:17.995Z,101312.00
2023-05-04T15:43:44.996Z,101312.00
2023-05-04T15:46:11.840Z,101307.00
2023-05-04T15:48:38.743Z,101305.00
2023-05-04T15:51:12.152Z,101312.00
2023-05-04T15:53:39.486Z,101302.00
2023-05-04T15:56:06.678Z,101300.00
2023-05-04T15:58:33.634Z,101304.00
2023-05-04T16:01:03.955Z,101303.00
2023-05-04T16:03:32.016Z,101297.00
2023-05-04T16:05:58.865Z,101294.00
2023-05-04T16:08:26.170Z,101303.00
2023-05-04T16:10:57.825Z,101316.00
2023-05-04T16:13:24.640Z,101324.00
2023-05-04T16:15:51.936Z,101326.00
2023-05-04T16:18:18.640Z,101313.00
2023-05-04T16:20:46.123Z,101323.00
2023-05-04T16:23:17.759Z,101320.00
2023-05-04T16:25:44.517Z,101320.00
2023-05-04T16:28:11.521Z,101326.00
2023-05-04T16:30:38.257Z,101325.00
2023-05-04T16:33:05.027Z,101323.00
2023-05-04T16:35:31.921Z,101334.00
2023-05-04T16:37:59.109Z,101329.00
2023-05-04T16:40:26.626Z,101338.00
2023-05-04T16:42:53.332Z,101332.00
2023-05-04T16:45:20.586Z,101327.00
2023-05-04T16:47:47.338Z,101323.00
2023-05-04T16:50:14.531Z,101337.00
2023-05-04T16:52:41.669Z,101341.00
2023-05-04T16:55:11.888Z,101347.00
2023-05-04T16:57:39.279Z,101351.00
2023-05-04T17:00:07.422Z,101359.00
2023-05-04T17:02:35.026Z,101346.00
2023-05-04T17:05:01.874Z,101347.00
2023-05-04T17:07:28.802Z,101359.00
2023-05-04T17:09:55.429Z,101347.00
2023-05-04T17:12:23.436Z,101346.00
2023-05-04T17:14:50.209Z,101346.00
2023-05-04T17:17:16.809Z,101350.00
2023-05-04T17:19:43.450Z,101368.00
2023-05-04T17:22:11.343Z,101345.00
2023-05-04T17:24:38.178Z,101347.00
2023-05-04T17:27:05.073Z,101350.00
2023-05-04T17:29:31.851Z,101344.00
2023-05-04T17:31:58.655Z,101338.00
2023-05-04T17:34:25.448Z,101341.00
2023-05-04T17:36:52.094Z,101344.00
2023-05-04T17:39:18.908Z,101347.00
2023-05-04T17:41:48.806Z,101351.00
2023-05-04T17:44:18.960Z,101349.00
2023-05-04T17:46:45.694Z,101349.00
2023-05-04T17:49:12.686Z,101357.00
2023-05-04T17:51:40.197Z,101349.00
2023-05-04T17:54:06.837Z,101357.00
2023-05-04T17:56:33.505Z,101358.00
2023-05-04T17:59:00.172Z,101355.00
2023-05-04T18:01:26.946Z,101362.00
2023-05-04T18:03:53.796Z,101364.00
2023-05-04T18:06:20.931Z,101377.00
2023-05-04T18:08:48.488Z,101373.00
2023-05-04T18:11:15.311Z,101383.00
2023-05-04T18:13:42.385Z,101396.00
2023-05-04T18:16:09.290Z,101404.00
2023-05-04T18:18:36.145Z,101394.00
2023-05-04T18:21:03.102Z,101414.00
2023-05-04T18:23:30.403Z,101405.00
2023-05-04T18:25:57.137Z,101405.00
2023-05-04T18:28:23.775Z,101404.00
2023-05-04T18:30:50.403Z,101409.00
2023-05-04T18:33:17.249Z,101409.00
2023-05-04T18:35:43.957Z,101398.00
2023-05-04T18:38:10.711Z,101399.00
2023-05-04T18:40:37.354Z,101407.00
2023-05-04T18:43:04.138Z,101408.00
2023-05-04T18:45:30.948Z,101413.00
2023-05-04T18:47:57.648Z,101422.00
2023-05-04T18:50:24.468Z,101420.00
2023-05-04T18:52:51.100Z,101422.00
2023-05-04T18:55:17.868Z,101417.00
2023-05-04T18:57:44.505Z,101420.00
2023-05-04T19:00:11.862Z,101421.00
2023-05-04T19:02:38.589Z,101424.00
2023-05-04T19:05:05.715Z,101428.00
2023-05-04T19:07:32.342Z,101431.00
2023-05-04T19:09:59.025Z,101427.00
2023-05-04T19:12:25.728Z,101428.00
2023-05-04T19:14:52.956Z,101424.00
2023-05-04T19:17:19.589Z,101433.00
2023-05-04T19:19:46.309Z,101437.00
2023-05-04T19:22:15.445Z,101441.00
2023-05-04T19:24:42.054Z,101440.00
2023-05-04T19:27:09.502Z,101439.00
2023-05-04T19:29:36.100Z,101437.00
2023-05-04T19:32:11.984Z,101436.00
2023-05-04T19:34:43.306Z,101450.00
2023-05-04T19:37:10.122Z,101458.00
2023-05-04T19:39:37.145Z,101455.00
2023-05-04T19:42:03.852Z,101468.00
2023-05-04T19:44:30.407Z,101472.00
2023-05-04T19:46:57.146Z,101479.00
2023-05-04T19:49:24.982Z,101488.00
2023-05-04T19:51:51.755Z,101482.00
2023-05-04T19:54:18.321Z,101490.00
2023-05-04T19:56:44.988Z,101494.00
2023-05-04T19:59:11.745Z,101493.00
2023-05-04T20:01:38.345Z,101497.00
2023-05-04T20:04:08.273Z,101494.00
2023-05-04T20:06:36.003Z,101504.00
2023-05-04T20:09:03.969Z,101497.00
2023-05-04T20:11:30.959Z,101506.00
2023-05-04T20:13:57.666Z,101492.00
2023-05-04T20:16:24.415Z,101499.00
2023-05-04T20:18:51.146Z,101503.00
2023-05-04T20:21:17.792Z,101497.00
2023-05-04T20:23:44.622Z,101498.00
2023-05-04T20:26:11.842Z,101499.00
2023-05-04T20:28:38.946Z,101511.00
2023-05-04T20:31:05.796Z,101514.00
2023-05-04T20:33:32.419Z,101515.00
2023-05-04T20:35:59.170Z,101512.00
2023-05-04T20:38:25.981Z,101527.00
2023-05-04T20:40:52.970Z,101529.00
2023-05-04T20:43:19.856Z,101533.00
2023-05-04T20:45:46.718Z,101532.00
2023-05-04T20:48:13.429Z,101516.00
2023-05-04T20:50:40.404Z,101522.00
2023-05-04T20:53:07.422Z,101523.00
2023-05-04T20:55:34.342Z,101526.00
2023-05-04T20:58:01.036Z,101527.00
2023-05-04T21:00:27.654Z,101529.00
2023-05-04T21:02:54.790Z,101535.00
2023-05-04T21:05:21.605Z,101533.00
2023-05-04T21:07:48.312Z,101535.00
2023-05-04T21:10:15.782Z,101530.00
2023-05-04T21:12:42.484Z,101533.00
2023-05-04T21:15:10.269Z,101540.00
2023-05-04T21:17:37.089Z,101538.00
2023-05-04T21:20:04.280Z,101525.00
2023-05-04T21:22:30.961Z,101538.00
2023-05-04T21:24:57.692Z,101554.00
2023-05-04T21:27:24.428Z,101554.00
2023-05-04T21:29:51.084Z,101557.00
2023-05-04T21:32:17.689Z,101568.00
2023-05-04T21:34:44.478Z,101553.00
2023-05-04T21:37:11.011Z,101537.00
2023-05-04T21:39:37.658Z,101516.00
2023-05-04T21:42:04.346Z,101533.00
2023-05-04T21:44:31.063Z,101554.00
2023-05-04T21:46:58.072Z,101544.00
2023-05-04T21:49:24.946Z,101539.00
2023-05-04T21:51:51.607Z,101542.00
2023-05-04T21:54:18.313Z,101540.00
2023-05-04T21:56:45.090Z,101545.00
2023-05-04T21:59:12.060Z,101541.00
2023-05-04T22:01:38.650Z,101530.00
2023-05-04T22:04:08.525Z,101528.00
2023-05-04T22:06:36.222Z,101511.00
2023-05-04T22:09:02.993Z,101509.00
2023-05-04T22:11:30.220Z,101506.00
2023-05-04T22:13:56.908Z,101507.00
2023-05-04T22:16:24.589Z,101500.00
2023-05-04T22:18:51.358Z,101490.00
2023-05-04T22:21:18.070Z,101494.00
2023-05-04T22:23:44.785Z,101500.00
2023-05-04T22:26:11.391Z,101502.00
2023-05-04T22:28:37.987Z,101503.00
2023-05-04T22:31:04.715Z,101505.00
2023-05-04T22:33:31.360Z,101504.00
2023-05-04T22:35:58.195Z,101505.00
2023-05-04T22:38:24.879Z,101506.00
2023-05-04T22:40:51.430Z,101502.00
2023-05-04T22:43:18.170Z,101496.00
2023-05-04T22:45:44.756Z,101503.00
2023-05-04T22:48:11.306Z,101509.00
2023-05-04T22:50:37.963Z,101513.00
2023-05-04T22:53:04.653Z,101515.00
2023-05-04T22:55:31.391Z,101518.00
2023-05-04T22:57:58.055Z,101519.00
2023-05-04T23:00:24.867Z,101530.00
2023-05-04T23:02:51.556Z,101528.00
2023-05-04T23:05:18.458Z,101537.00
2023-05-04T23:07:45.080Z,101540.00
2023-05-04T23:10:11.677Z,101533.00
2023-05-04T23:12:38.470Z,101534.00
2023-05-04T23:15:06.549Z,101552.00
2023-05-04T23:17:34.262Z,101554.00
2023-05-04T23:20:01.039Z,101567.00
2023-05-04T23:22:27.916Z,101568.00
2023-05-04T23:24:54.516Z,101560.00
2023-05-04T23:27:21.223Z,101568.00
2023-05-04T23:29:47.837Z,101576.00
2023-05-04T23:32:14.444Z,101576.00
2023-05-04T23:34:41.043Z,101577.00
2023-05-04T23:37:07.777Z,101567.00
2023-05-04T23:39:34.774Z,101567.00
2023-05-04T23:42:01.450Z,101570.00
2023-05-04T23:44:28.101Z,101576.00
2023-05-04T23:46:54.678Z,101575.00
2023-05-04T23:49:21.367Z,101573.00
2023-05-04T23:51:48.007Z,101569.00
2023-05-04T23:54:15.182Z,101575.00
2023-05-04T23:56:42.964Z,101572.00
2023-05-04T23:59:10.591Z,101568.00
